Time;durP1;ratioP1;P1;durP2;ratioP2;P2;SDS_P1;SDS_P2;PMS_P1;PMS_P2;Temp;Humidity;BMP_temperature;BMP_pressure;BME280_temperature;BME280_humidity;BME280_pressure;Samples;Min_cycle;Max_cycle;Signal;HPM_P1;HPM_P2
2020/10/10 00:02:23;;;;;;;1.4;1.1;;;;;;;10.18;86.31348;940.9325;;;;
2020/10/10 00:04:48;;;;;;;3.2;1.4;;;;;;;10.28;86.0498;941.0006;;;;
2020/10/10 00:07:18;;;;;;;1.9;1.4;;;;;;;10.39;85.53418;940.957;;;;
2020/10/10 00:09:49;;;;;;;3.5;1.5;;;;;;;10.49;84.88281;940.9619;;;;
2020/10/10 00:12:08;;;;;;;1.9;1.2;;;;;;;10.48;84.76465;941.0325;;;;
2020/10/10 00:14:33;;;;;;;1.4;1;;;;;;;10.35;85.4707;940.9819;;;;
2020/10/10 00:17:00;;;;;;;3.9;1.3;;;;;;;10.41;85.0127;941.0737;;;;
2020/10/10 00:19:25;;;;;;;1.5;1;;;;;;;10.45;84.8623;941.0321;;;;
2020/10/10 00:21:50;;;;;;;2.2;1.3;;;;;;;10.49;84.50391;940.9841;;;;
2020/10/10 00:24:17;;;;;;;4.6;1.4;;;;;;;10.52;84.36035;941.0386;;;;
2020/10/10 00:26:42;;;;;;;2.9;1.3;;;;;;;;;;;;;
2020/10/10 00:29:07;;;;;;;2.2;1.2;;;;;;;;;;;;;
2020/10/10 00:31:32;;;;;;;2.8;1.1;;;;;;;;;;;;;
2020/10/10 00:33:57;;;;;;;1.7;1;;;;;;;;;;;;;
2020/10/10 00:36:23;;;;;;;2.3;0.9;;;;;;;;;;;;;
2020/10/10 00:38:48;;;;;;;2.2;1.1;;;;;;;;;;;;;
2020/10/10 00:41:13;;;;;;;1.3;1;;;;;;;;;;;;;
2020/10/10 00:43:38;;;;;;;2.1;1.4;;;;;;;;;;;;;
2020/10/10 00:46:03;;;;;;;2.9;1.5;;;;;;;;;;;;;
2020/10/10 00:48:28;;;;;;;3.5;1.3;;;;;;;;;;;;;
2020/10/10 00:50:58;;;;;;;2.6;1.7;;;;;;;;;;;;;
2020/10/10 00:53:19;;;;;;;4.2;1.9;;;;;;;;;;;;;
2020/10/10 00:55:45;;;;;;;4.9;2.3;;;;;;;;;;;;;
2020/10/10 00:58:10;;;;;;;5.6;1.8;;;;;;;;;;;;;
2020/10/10 01:00:37;;;;;;;4.5;2;;;;;;;;;;;;;
2020/10/10 01:03:02;;;;;;;2.2;1.4;;;;;;;;;;;;;
2020/10/10 01:05:27;;;;;;;3.1;1.7;;;;;;;;;;;;;
2020/10/10 01:07:52;;;;;;;1.7;1.3;;;;;;;;;;;;;
2020/10/10 01:10:18;;;;;;;2.2;1.4;;;;;;;;;;;;;
2020/10/10 01:12:44;;;;;;;2.3;1.5;;;;;;;;;;;;;
2020/10/10 01:15:08;;;;;;;2.8;1.3;;;;;;;;;;;;;
2020/10/10 01:17:33;;;;;;;3;1.6;;;;;;;;;;;;;
2020/10/10 01:19:59;;;;;;;2;1.4;;;;;;;;;;;;;
2020/10/10 01:22:25;;;;;;;3.6;1.3;;;;;;;;;;;;;
2020/10/10 01:24:49;;;;;;;1.3;1;;;;;;;;;;;;;
2020/10/10 01:27:15;;;;;;;2.6;1.4;;;;;;;;;;;;;
2020/10/10 01:29:40;;;;;;;1.7;1.2;;;;;;;;;;;;;
2020/10/10 01:32:06;;;;;;;1.3;1;;;;;;;;;;;;;
2020/10/10 01:34:31;;;;;;;4.7;1.1;;;;;;;;;;;;;
2020/10/10 01:36:58;;;;;;;2.4;1;;;;;;;;;;;;;
2020/10/10 01:39:24;;;;;;;1.5;1.1;;;;;;;;;;;;;
2020/10/10 01:41:49;;;;;;;4.4;1.3;;;;;;;;;;;;;
2020/10/10 01:44:14;;;;;;;2.8;1.4;;;;;;;;;;;;;
2020/10/10 01:46:39;;;;;;;1.6;1.3;;;;;;;;;;;;;
2020/10/10 01:49:04;;;;;;;1.8;1.4;;;;;;;;;;;;;
2020/10/10 01:51:29;;;;;;;3.2;1.4;;;;;;;;;;;;;
2020/10/10 01:53:55;;;;;;;2.2;1.3;;;;;;;;;;;;;
2020/10/10 01:56:20;;;;;;;3.4;1.5;;;;;;;;;;;;;
2020/10/10 01:58:46;;;;;;;2.9;1.3;;;;;;;;;;;;;
2020/10/10 02:01:11;;;;;;;2;1.3;;;;;;;;;;;;;
2020/10/10 02:03:38;;;;;;;2;1;;;;;;;;;;;;;
2020/10/10 02:06:02;;;;;;;1.8;1;;;;;;;;;;;;;
2020/10/10 02:08:28;;;;;;;1.7;1.1;;;;;;;;;;;;;
2020/10/10 02:10:54;;;;;;;5.6;1.4;;;;;;;;;;;;;
2020/10/10 02:13:19;;;;;;;1.8;1.2;;;;;;;;;;;;;
2020/10/10 02:15:44;;;;;;;3.3;1;;;;;;;;;;;;;
2020/10/10 02:18:09;;;;;;;1.2;0.9;;;;;;;;;;;;;
2020/10/10 02:20:36;;;;;;;1.2;1;;;;;;;;;;;;;
2020/10/10 02:23:00;;;;;;;3.7;1.4;;;;;;;;;;;;;
2020/10/10 02:25:25;;;;;;;2.3;1.4;;;;;;;;;;;;;
2020/10/10 02:27:51;;;;;;;1.8;1.2;;;;;;;;;;;;;
2020/10/10 02:30:25;;;;;;;1.5;0.9;;;;;;;;;;;;;
2020/10/10 02:32:41;;;;;;;2;1.2;;;;;;;;;;;;;
2020/10/10 02:35:07;;;;;;;3;1.5;;;;;;;;;;;;;
2020/10/10 02:37:32;;;;;;;3.1;1.2;;;;;;;;;;;;;
2020/10/10 02:40:00;;;;;;;1.8;1.2;;;;;;;;;;;;;
2020/10/10 02:42:24;;;;;;;2.6;1.2;;;;;;;;;;;;;
2020/10/10 02:44:49;;;;;;;9.4;1.3;;;;;;;;;;;;;
2020/10/10 02:47:15;;;;;;;4.6;1.4;;;;;;;;;;;;;
2020/10/10 02:49:40;;;;;;;4.1;1.5;;;;;;;;;;;;;
2020/10/10 02:52:05;;;;;;;2.4;1.3;;;;;;;;;;;;;
2020/10/10 02:54:31;;;;;;;3.1;1.7;;;;;;;;;;;;;
2020/10/10 02:56:57;;;;;;;4.8;1.5;;;;;;;;;;;;;
2020/10/10 02:59:22;;;;;;;1.9;1.2;;;;;;;;;;;;;
2020/10/10 03:01:48;;;;;;;6.6;1.2;;;;;;;;;;;;;
2020/10/10 03:04:20;;;;;;;5.8;1.3;;;;;;;;;;;;;
2020/10/10 03:06:45;;;;;;;4.7;1.4;;;;;;;;;;;;;
2020/10/10 03:11:35;;;;;;;5;1.5;;;;;;;;;;;;;
2020/10/10 03:14:01;;;;;;;8.1;1.6;;;;;;;;;;;;;
2020/10/10 03:16:27;;;;;;;3;1.5;;;;;;;;;;;;;
2020/10/10 03:18:52;;;;;;;3.4;1.3;;;;;;;;;;;;;
2020/10/10 03:21:18;;;;;;;3.1;1.1;;;;;;;;;;;;;
2020/10/10 03:23:42;;;;;;;1.5;1.1;;;;;;;;;;;;;
2020/10/10 03:26:07;;;;;;;1.7;1;;;;;;;;;;;;;
2020/10/10 03:28:33;;;;;;;2.9;1.1;;;;;;;;;;;;;
2020/10/10 03:30:58;;;;;;;1.4;1;;;;;;;;;;;;;
2020/10/10 03:33:23;;;;;;;1.7;1.2;;;;;;;;;;;;;
2020/10/10 03:35:48;;;;;;;1.5;1.2;;;;;;;;;;;;;
2020/10/10 03:38:13;;;;;;;2.2;1.3;;;;;;;;;;;;;
2020/10/10 03:40:39;;;;;;;5.9;2.1;;;;;;;;;;;;;
2020/10/10 03:43:04;;;;;;;2.3;1.2;;;;;;;;;;;;;
2020/10/10 03:45:29;;;;;;;2.1;1;;;;;;;;;;;;;
2020/10/10 03:47:54;;;;;;;1.8;1;;;;;;;;;;;;;
2020/10/10 03:50:20;;;;;;;2.3;1.4;;;;;;;;;;;;;
2020/10/10 03:52:45;;;;;;;3.6;1.5;;;;;;;;;;;;;
2020/10/10 03:55:10;;;;;;;2.1;1.3;;;;;;;;;;;;;
2020/10/10 03:57:36;;;;;;;1.3;0.9;;;;;;;;;;;;;
2020/10/10 04:00:00;;;;;;;3.1;1;;;;;;;;;;;;;
2020/10/10 04:02:31;;;;;;;1.5;1;;;;;;;8.86;89.65527;940.1509;;;;
2020/10/10 04:04:56;;;;;;;2.6;1.3;;;;;;;8.77;89.92285;940.1776;;;;
2020/10/10 04:07:22;;;;;;;5.4;2.8;;;;;;;8.94;89.0127;940.1691;;;;
2020/10/10 04:09:47;;;;;;;6;2.7;;;;;;;9.04;87.81543;940.1553;;;;
2020/10/10 04:12:13;;;;;;;9.4;2.5;;;;;;;8.81;88.4873;940.128;;;;
2020/10/10 04:14:38;;;;;;;4.8;2.5;;;;;;;8.81;88.45117;940.2478;;;;
2020/10/10 04:17:03;;;;;;;5.1;1.8;;;;;;;8.29;91.35547;940.1339;;;;
2020/10/10 04:19:28;;;;;;;2.6;1.3;;;;;;;8.28;91.5791;940.1931;;;;
2020/10/10 04:21:54;;;;;;;4;1.5;;;;;;;8.33;91.17285;940.2324;;;;
2020/10/10 04:24:19;;;;;;;2.4;1.4;;;;;;;8.04;92.69824;940.2242;;;;
2020/10/10 04:26:44;;;;;;;3.5;1.6;;;;;;;8.15;92.71973;940.2756;;;;
2020/10/10 04:29:09;;;;;;;1.8;1.2;;;;;;;8.47;90.97168;940.2968;;;;
2020/10/10 04:31:34;;;;;;;2.2;1.4;;;;;;;8.27;92.33789;940.258;;;;
2020/10/10 04:34:00;;;;;;;2.1;1.4;;;;;;;8.28;92.5127;940.251;;;;
2020/10/10 04:36:25;;;;;;;3;1.3;;;;;;;8.56;91.28613;940.2651;;;;
2020/10/10 04:38:51;;;;;;;1.9;1.4;;;;;;;8.76;89.66992;940.256;;;;
2020/10/10 04:41:16;;;;;;;4.4;1.4;;;;;;;8.88;88.4668;940.2413;;;;
2020/10/10 04:43:42;;;;;;;1.9;1.2;;;;;;;8.96;87.39063;940.1537;;;;
2020/10/10 04:46:07;;;;;;;3.8;1.6;;;;;;;8.99;86.82813;940.1915;;;;
2020/10/10 04:48:33;;;;;;;4;1.6;;;;;;;8.97;86.70996;940.231;;;;
2020/10/10 04:50:58;;;;;;;7.7;1.8;;;;;;;8.65;88.32715;940.2405;;;;
2020/10/10 04:53:23;;;;;;;2.7;1.9;;;;;;;8.35;90.12012;940.2219;;;;
2020/10/10 04:55:50;;;;;;;3.2;1.5;;;;;;;8.68;88.6875;940.2006;;;;
2020/10/10 04:58:15;;;;;;;2.7;1.7;;;;;;;8.81;87.63281;940.1358;;;;
2020/10/10 05:00:44;;;;;;;2.8;1.5;;;;;;;8.86;86.6084;940.1256;;;;
2020/10/10 05:03:09;;;;;;;2.6;1.3;;;;;;;8.9;86.00195;940.1717;;;;
2020/10/10 05:05:34;;;;;;;3.1;1.7;;;;;;;8.9;85.49023;940.1605;;;;
2020/10/10 05:07:59;;;;;;;1.8;1.1;;;;;;;8.91;85.58301;940.1678;;;;
2020/10/10 05:10:25;;;;;;;3;1.9;;;;;;;8.88;85.9873;940.2031;;;;
2020/10/10 05:12:50;;;;;;;3.5;1.7;;;;;;;8.91;85.65137;940.2147;;;;
2020/10/10 05:15:21;;;;;;;2.8;1.7;;;;;;;8.97;85.4834;940.1699;;;;
2020/10/10 05:17:47;;;;;;;2.4;1.8;;;;;;;8.97;85.77734;940.2292;;;;
2020/10/10 05:20:13;;;;;;;2.6;1.7;;;;;;;8.76;86.69141;940.2188;;;;
2020/10/10 05:22:38;;;;;;;4.8;2;;;;;;;8.76;86.72559;940.21;;;;
2020/10/10 05:25:03;;;;;;;5.3;2;;;;;;;8.67;87.12793;940.2575;;;;
2020/10/10 05:27:28;;;;;;;4.7;2;;;;;;;8.63;87.13184;940.2028;;;;
2020/10/10 05:29:53;;;;;;;4.4;2.2;;;;;;;8.36;88.26953;940.1936;;;;
2020/10/10 05:32:18;;;;;;;2.5;1.6;;;;;;;8.17;89.27539;940.12;;;;
2020/10/10 05:34:45;;;;;;;3.8;1.8;;;;;;;8.41;88.43848;940.1901;;;;
2020/10/10 05:37:11;;;;;;;2.8;1.9;;;;;;;8.46;87.75391;940.0474;;;;
2020/10/10 05:39:35;;;;;;;8.3;1.7;;;;;;;8.43;88.06543;940.1317;;;;
2020/10/10 05:42:00;;;;;;;2.7;1.5;;;;;;;8.51;88.01758;940.1358;;;;
2020/10/10 05:44:26;;;;;;;2.7;1.4;;;;;;;8.44;88.05957;940.1066;;;;
2020/10/10 05:46:55;;;;;;;3.8;1.6;;;;;;;8.62;87.67383;940.1041;;;;
2020/10/10 05:49:20;;;;;;;2.7;1.7;;;;;;;8.86;86.81152;940.0762;;;;
2020/10/10 05:51:47;;;;;;;3.1;1.5;;;;;;;8.71;87.33789;940.1184;;;;
2020/10/10 05:54:13;;;;;;;2.5;1.4;;;;;;;8.62;87.82129;940.1763;;;;
2020/10/10 05:56:38;;;;;;;1.9;1.2;;;;;;;8.67;87.38965;940.2709;;;;
2020/10/10 05:59:03;;;;;;;2.7;1.3;;;;;;;8.34;89.25293;940.2668;;;;
2020/10/10 06:01:32;;;;;;;3.5;1.7;;;;;;;8.28;89.78516;940.2676;;;;
2020/10/10 06:03:57;;;;;;;2.6;1.7;;;;;;;8.27;89.9873;940.2452;;;;
2020/10/10 06:06:25;;;;;;;4.1;2;;;;;;;8.34;89.82031;940.2352;;;;
2020/10/10 06:08:48;;;;;;;5.2;1.6;;;;;;;8.47;89.09668;940.2238;;;;
2020/10/10 06:11:13;;;;;;;4.8;1.6;;;;;;;8.77;87.81836;940.2117;;;;
2020/10/10 06:13:40;;;;;;;4.5;1.9;;;;;;;8.51;89.02637;940.25;;;;
2020/10/10 06:16:05;;;;;;;2.2;1.2;;;;;;;8.33;90.28613;940.2386;;;;
2020/10/10 06:18:31;;;;;;;6.2;2.5;;;;;;;8.56;89.85449;940.2089;;;;
2020/10/10 06:20:56;;;;;;;3.9;2;;;;;;;8.79;88.67578;940.2217;;;;
2020/10/10 06:23:23;;;;;;;3.4;1.5;;;;;;;9.1;87.4541;940.213;;;;
2020/10/10 06:25:48;;;;;;;3.7;1.9;;;;;;;9.34;86.36328;940.1689;;;;
2020/10/10 06:28:15;;;;;;;2.5;1.7;;;;;;;9.23;86.91113;940.1989;;;;
2020/10/10 06:30:40;;;;;;;2.3;1.6;;;;;;;9.44;86.81641;940.2686;;;;
2020/10/10 06:33:05;;;;;;;3.3;1.5;;;;;;;9.44;87.12402;940.2352;;;;
2020/10/10 06:35:31;;;;;;;2.2;1.7;;;;;;;9.38;87.07715;940.1783;;;;
2020/10/10 06:37:56;;;;;;;3.1;1.5;;;;;;;9.51;86.97656;940.1743;;;;
2020/10/10 06:40:21;;;;;;;5.6;2;;;;;;;9.71;85.92285;940.1436;;;;
2020/10/10 06:42:46;;;;;;;1.9;1.6;;;;;;;10.1;84.97559;940.1443;;;;
2020/10/10 06:45:16;;;;;;;2.4;1.7;;;;;;;10.36;84.16016;940.1144;;;;
2020/10/10 06:47:44;;;;;;;4.2;2;;;;;;;10.53;83.0625;940.1367;;;;
2020/10/10 06:50:09;;;;;;;3.3;1.8;;;;;;;10.73;82.09375;940.2173;;;;
2020/10/10 06:52:35;;;;;;;3.2;1.6;;;;;;;11.07;80.61621;940.2584;;;;
2020/10/10 06:54:59;;;;;;;4;1.5;;;;;;;11.1;79.65039;940.2039;;;;
2020/10/10 06:57:24;;;;;;;3.9;1.4;;;;;;;11.26;79.37012;940.1969;;;;
2020/10/10 06:59:50;;;;;;;1.8;1.1;;;;;;;11.4;78.89355;940.1895;;;;
2020/10/10 07:02:15;;;;;;;1.7;0.9;;;;;;;11.56;78.99023;940.1289;;;;
2020/10/10 07:04:40;;;;;;;2.5;1.3;;;;;;;11.8;77.94824;940.1379;;;;
2020/10/10 07:07:05;;;;;;;6.8;2.2;;;;;;;11.71;77.39355;940.0795;;;;
2020/10/10 07:09:30;;;;;;;2.6;1.5;;;;;;;11.69;77.28613;940.0298;;;;
2020/10/10 07:11:56;;;;;;;2.3;1.4;;;;;;;12.17;75.99609;940.0236;;;;
2020/10/10 07:14:21;;;;;;;4.1;1.2;;;;;;;12.53;74.16699;939.9766;;;;
2020/10/10 07:16:46;;;;;;;1.9;1.4;;;;;;;12.88;72.91699;939.981;;;;
2020/10/10 07:19:11;;;;;;;3.4;1.8;;;;;;;12.87;72.73145;939.9897;;;;
2020/10/10 07:21:37;;;;;;;2.8;1.8;;;;;;;12.92;71.31641;939.9924;;;;
2020/10/10 07:24:02;;;;;;;4.6;1.8;;;;;;;13.52;70.74902;940.0363;;;;
2020/10/10 07:26:27;;;;;;;4.2;2;;;;;;;13.42;69.82324;939.9938;;;;
2020/10/10 07:28:52;;;;;;;4.3;1.6;;;;;;;13.46;70.88867;940.005;;;;
2020/10/10 07:31:18;;;;;;;2.6;1.3;;;;;;;13.31;69.48633;939.9917;;;;
2020/10/10 07:33:44;;;;;;;2.7;1.7;;;;;;;13.31;70.16211;940.0389;;;;
2020/10/10 07:36:09;;;;;;;2.2;1;;;;;;;13.26;70.00586;940.0061;;;;
2020/10/10 07:38:34;;;;;;;1;0.8;;;;;;;13.57;69.65234;940.0187;;;;
2020/10/10 07:40:59;;;;;;;2.2;1;;;;;;;13.92;69.03027;940.0248;;;;
2020/10/10 07:43:24;;;;;;;2.2;1;;;;;;;14.33;69.26758;940.0569;;;;
2020/10/10 07:45:52;;;;;;;2.7;1.6;;;;;;;14.35;67.26758;940.0337;;;;
2020/10/10 07:48:17;;;;;;;3.8;1.5;;;;;;;14.23;67.4209;939.9531;;;;
2020/10/10 07:50:42;;;;;;;3.2;1.6;;;;;;;14.39;68.06738;939.9991;;;;
2020/10/10 07:53:08;;;;;;;4.1;1.7;;;;;;;14.61;67.24902;939.9958;;;;
2020/10/10 07:55:33;;;;;;;2.3;1.5;;;;;;;14.73;66.64551;940.007;;;;
2020/10/10 07:58:01;;;;;;;4;1.6;;;;;;;14.31;66.92676;940.061;;;;
2020/10/10 08:00:35;;;;;;;3;1.3;;;;;;;14.23;67.24805;940.1245;;;;
2020/10/10 08:03:02;;;;;;;4;2.1;;;;;;;14.49;66.74707;940.1493;;;;
2020/10/10 08:05:26;;;;;;;3.3;1.8;;;;;;;14.53;67.19141;940.1099;;;;
2020/10/10 08:07:54;;;;;;;3.2;2;;;;;;;14.56;66.87305;940.1483;;;;
2020/10/10 08:10:19;;;;;;;4.3;1.9;;;;;;;14.58;67.95898;940.1811;;;;
2020/10/10 08:12:44;;;;;;;6.9;2.8;;;;;;;14.59;67.17676;940.242;;;;
2020/10/10 08:15:19;;;;;;;5.1;2.7;;;;;;;14.6;66.2334;940.2163;;;;
2020/10/10 08:17:53;;;;;;;5.4;2.7;;;;;;;14.7;67.0332;940.29;;;;
2020/10/10 08:20:18;;;;;;;7.4;2.7;;;;;;;14.67;66.65918;940.3478;;;;
2020/10/10 08:22:43;;;;;;;5.8;2.8;;;;;;;14.69;65.84375;940.323;;;;
2020/10/10 08:25:08;;;;;;;5.6;2.8;;;;;;;14.37;70.15039;940.3741;;;;
2020/10/10 08:27:33;;;;;;;4.6;2.4;;;;;;;14.49;69.82324;940.3456;;;;
2020/10/10 08:29:59;;;;;;;5.8;2;;;;;;;14.56;68.94727;940.3911;;;;
2020/10/10 08:32:25;;;;;;;2.9;1.3;;;;;;;14.69;69.12891;940.3918;;;;
2020/10/10 08:34:51;;;;;;;3.6;1.4;;;;;;;14.73;70.12695;940.3973;;;;
2020/10/10 08:37:16;;;;;;;2.6;1.3;;;;;;;14.72;70.7832;940.3445;;;;
2020/10/10 08:39:43;;;;;;;2.9;1.6;;;;;;;14.71;70.20508;940.3726;;;;
2020/10/10 08:42:08;;;;;;;3.1;1.6;;;;;;;14.79;69.47852;940.3611;;;;
2020/10/10 08:44:34;;;;;;;2.5;1.5;;;;;;;14.84;69.79883;940.4341;;;;
2020/10/10 08:46:59;;;;;;;1.5;1.2;;;;;;;14.96;69.50586;940.5099;;;;
2020/10/10 08:49:29;;;;;;;1.7;1.2;;;;;;;14.85;69.4541;940.5817;;;;
2020/10/10 08:51:57;;;;;;;1.2;0.9;;;;;;;14.63;69.00488;940.6733;;;;
2020/10/10 08:54:21;;;;;;;3.4;1.2;;;;;;;14.5;70.74609;940.7319;;;;
2020/10/10 08:56:48;;;;;;;2.1;1.4;;;;;;;14.34;71.49219;940.7419;;;;
2020/10/10 08:59:14;;;;;;;1.6;1.3;;;;;;;14.21;72.72656;940.7841;;;;
2020/10/10 09:01:39;;;;;;;2.7;0.7;;;;;;;13.72;75.47461;940.7186;;;;
2020/10/10 09:04:04;;;;;;;0.7;0.6;;;;;;;13.63;76.09277;940.7608;;;;
2020/10/10 09:06:29;;;;;;;1.1;0.7;;;;;;;13.05;78.07813;940.8628;;;;
2020/10/10 09:08:55;;;;;;;1.4;0.7;;;;;;;12.71;79.39746;941.0324;;;;
2020/10/10 09:11:19;;;;;;;1;0.7;;;;;;;12.49;80.20508;941.0843;;;;
2020/10/10 09:13:45;;;;;;;1.2;0.6;;;;;;;12.26;81.12402;941.1486;;;;
2020/10/10 09:16:10;;;;;;;0.8;0.5;;;;;;;11.85;82.37891;941.2597;;;;
2020/10/10 09:18:35;;;;;;;1.2;0.8;;;;;;;11.72;82.74219;941.4253;;;;
2020/10/10 09:21:03;;;;;;;0.7;0.6;;;;;;;11.7;82.7959;941.3836;;;;
2020/10/10 09:23:27;;;;;;;0.7;0.6;;;;;;;11.57;82.64453;941.5335;;;;
2020/10/10 09:25:54;;;;;;;0.6;0.5;;;;;;;11.53;82.49805;941.5442;;;;
2020/10/10 09:28:19;;;;;;;0.2;0.2;;;;;;;11.58;82.26855;941.5742;;;;
2020/10/10 09:30:49;;;;;;;1.4;0.6;;;;;;;11.39;82.14258;941.5577;;;;
2020/10/10 09:33:18;;;;;;;0.3;0.3;;;;;;;11.52;82.41602;941.6351;;;;
2020/10/10 09:35:40;;;;;;;0.7;0.4;;;;;;;11.5;82.36719;941.5711;;;;
2020/10/10 09:38:09;;;;;;;0.4;0.4;;;;;;;11.56;82.99707;941.7081;;;;
2020/10/10 09:40:33;;;;;;;0.3;0.3;;;;;;;11.27;83.47949;941.6917;;;;
2020/10/10 09:42:59;;;;;;;0.4;0.4;;;;;;;11.37;83.45117;941.7367;;;;
2020/10/10 09:45:26;;;;;;;0.2;0.2;;;;;;;11.19;83.49805;941.731;;;;
2020/10/10 09:47:52;;;;;;;0.4;0.4;;;;;;;11.22;84.46387;941.7261;;;;
2020/10/10 09:50:16;;;;;;;0.3;0.3;;;;;;;11.01;84.74219;941.8176;;;;
2020/10/10 09:52:41;;;;;;;0.3;0.2;;;;;;;10.77;85.31055;941.7981;;;;
2020/10/10 09:55:12;;;;;;;0.2;0.2;;;;;;;10.46;87.06543;941.8769;;;;
2020/10/10 09:57:38;;;;;;;0.8;0.4;;;;;;;10.55;86.94629;942.012;;;;
2020/10/10 10:00:03;;;;;;;0.2;0.2;;;;;;;10.45;87.75;942.1348;;;;
2020/10/10 10:02:28;;;;;;;0.5;0.5;;;;;;;10.41;88.31152;942.2822;;;;
2020/10/10 10:04:54;;;;;;;0.2;0.2;;;;;;;9.77;90.2666;942.3251;;;;
2020/10/10 10:07:19;;;;;;;0.5;0.4;;;;;;;9.93;90.41504;942.4263;;;;
2020/10/10 10:09:45;;;;;;;0.4;0.4;;;;;;;9.9;90.34961;942.4542;;;;
2020/10/10 10:12:11;;;;;;;0.6;0.4;;;;;;;10.22;89.7793;942.5723;;;;
2020/10/10 10:14:36;;;;;;;3;0.8;;;;;;;10.03;90.59668;942.5717;;;;
2020/10/10 10:17:34;;;;;;;3.7;1.1;;;;;;;10.01;90.68066;942.6177;;;;
2020/10/10 10:19:29;;;;;;;0.6;0.5;;;;;;;10.06;90.11035;942.6047;;;;
2020/10/10 10:21:55;;;;;;;0.2;0.1;;;;;;;10.12;89.79492;942.7419;;;;
2020/10/10 10:24:20;;;;;;;2.3;0.6;;;;;;;10.36;88.91699;942.73;;;;
2020/10/10 10:26:47;;;;;;;0.4;0.2;;;;;;;10.48;88.66895;942.7833;;;;
2020/10/10 10:29:12;;;;;;;0.4;0.3;;;;;;;10.45;87.70508;942.8123;;;;
2020/10/10 10:31:38;;;;;;;1.5;0.4;;;;;;;10.37;88.49805;942.8878;;;;
2020/10/10 10:34:03;;;;;;;0.5;0.5;;;;;;;10.17;89.4502;942.8837;;;;
2020/10/10 10:36:29;;;;;;;0.6;0.5;;;;;;;10.4;88.5498;942.9105;;;;
2020/10/10 10:38:55;;;;;;;1.9;0.8;;;;;;;10.33;89.24219;942.8855;;;;
2020/10/10 10:41:20;;;;;;;0.5;0.3;;;;;;;10.43;88.60254;942.8183;;;;
2020/10/10 10:43:49;;;;;;;0.5;0.4;;;;;;;10.51;88.43652;942.8906;;;;
2020/10/10 10:46:16;;;;;;;0.4;0.2;;;;;;;10.72;88.04297;942.8583;;;;
2020/10/10 10:48:43;;;;;;;0.5;0.4;;;;;;;10.7;87.98438;942.9338;;;;
2020/10/10 10:51:07;;;;;;;0.6;0.6;;;;;;;10.78;87.21289;942.8571;;;;
2020/10/10 10:53:33;;;;;;;0.5;0.5;;;;;;;10.79;87.0752;942.9615;;;;
2020/10/10 10:55:58;;;;;;;0.9;0.4;;;;;;;10.92;86.37109;942.979;;;;
2020/10/10 10:58:24;;;;;;;0.5;0.3;;;;;;;10.99;85.28906;942.9202;;;;
2020/10/10 11:00:49;;;;;;;0.5;0.4;;;;;;;10.98;85.48145;942.9393;;;;
2020/10/10 11:03:16;;;;;;;0.8;0.5;;;;;;;10.97;85.76465;942.8499;;;;
2020/10/10 11:05:41;;;;;;;1.5;0.5;;;;;;;11.13;85.01758;942.8541;;;;
2020/10/10 11:08:06;;;;;;;0.5;0.5;;;;;;;11.04;85.53711;942.8909;;;;
2020/10/10 11:10:31;;;;;;;2.4;0.8;;;;;;;11.09;85.2627;942.9316;;;;
2020/10/10 11:12:57;;;;;;;1.2;0.5;;;;;;;11.21;84.71582;942.9369;;;;
2020/10/10 11:15:26;;;;;;;0.7;0.5;;;;;;;11.29;84.16895;942.8463;;;;
2020/10/10 11:17:53;;;;;;;1.2;0.7;;;;;;;11.08;84.6543;942.902;;;;
2020/10/10 11:20:28;;;;;;;2.4;0.8;;;;;;;11.06;85.0498;942.8642;;;;
2020/10/10 11:22:43;;;;;;;11.4;1.5;;;;;;;11.17;85.02539;942.9161;;;;
2020/10/10 11:25:08;;;;;;;1.7;1.3;;;;;;;11.08;85.78613;942.8789;;;;
2020/10/10 11:27:35;;;;;;;1.9;1.3;;;;;;;10.97;85.95801;942.8323;;;;
2020/10/10 11:30:00;;;;;;;2.7;1.4;;;;;;;11;85.64453;942.8017;;;;
2020/10/10 11:32:25;;;;;;;1.4;1;;;;;;;10.87;85.77832;942.8188;;;;
2020/10/10 11:34:50;;;;;;;1.5;1;;;;;;;10.72;86.85547;942.8242;;;;
2020/10/10 11:37:15;;;;;;;0.5;0.5;;;;;;;10.79;86.58398;942.8531;;;;
2020/10/10 11:39:41;;;;;;;0.4;0.4;;;;;;;10.91;85.27051;942.8464;;;;
2020/10/10 11:42:09;;;;;;;1.5;1;;;;;;;10.94;85.02637;942.8717;;;;
2020/10/10 11:44:34;;;;;;;1.1;0.7;;;;;;;10.81;85.8125;942.81;;;;
2020/10/10 11:47:02;;;;;;;0.6;0.4;;;;;;;11;85.35742;942.7809;;;;
2020/10/10 11:49:27;;;;;;;1.4;0.6;;;;;;;11.21;84.49609;942.7907;;;;
2020/10/10 11:51:55;;;;;;;0.4;0.4;;;;;;;11.12;84.9707;942.7902;;;;
2020/10/10 11:54:20;;;;;;;0.8;0.6;;;;;;;11.06;85.23242;942.7509;;;;
2020/10/10 11:56:45;;;;;;;2.2;0.8;;;;;;;11.12;84.54785;942.7297;;;;
2020/10/10 11:59:13;;;;;;;1.3;0.7;;;;;;;11.33;84.28906;942.7615;;;;
2020/10/10 12:01:37;;;;;;;1.5;0.8;;;;;;;11.54;83.29004;942.7566;;;;
2020/10/10 12:04:03;;;;;;;1.4;0.8;;;;;;;11.69;82.59766;942.7589;;;;
2020/10/10 12:06:28;;;;;;;1.4;0.6;;;;;;;11.78;82.07715;942.6801;;;;
2020/10/10 12:08:55;;;;;;;0.4;0.4;;;;;;;11.83;81.2041;942.7203;;;;
2020/10/10 12:11:20;;;;;;;1.6;1;;;;;;;11.62;82.18359;942.7587;;;;
2020/10/10 12:13:45;;;;;;;1.2;0.9;;;;;;;11.67;82.19531;942.7642;;;;
2020/10/10 12:16:14;;;;;;;0.8;0.7;;;;;;;11.42;82.11328;942.6555;;;;
2020/10/10 12:18:44;;;;;;;0.8;0.6;;;;;;;11.62;81.81738;942.6039;;;;
2020/10/10 12:21:12;;;;;;;1.6;1;;;;;;;11.64;82.25684;942.562;;;;
2020/10/10 12:23:34;;;;;;;1;0.7;;;;;;;11.14;84.51855;942.517;;;;
2020/10/10 12:26:00;;;;;;;0.7;0.7;;;;;;;11.06;84.35352;942.5327;;;;
2020/10/10 12:28:25;;;;;;;2.9;1.4;;;;;;;10.92;86.65723;942.5352;;;;
2020/10/10 12:30:53;;;;;;;1.7;0.9;;;;;;;11.1;84.9082;942.4631;;;;
2020/10/10 12:33:19;;;;;;;17.9;8.3;;;;;;;11.34;84.33984;942.4156;;;;
2020/10/10 12:35:44;;;;;;;1.6;0.9;;;;;;;11.63;83.52441;942.4542;;;;
2020/10/10 12:38:09;;;;;;;2.9;1.8;;;;;;;11.77;82.7627;942.4358;;;;
2020/10/10 12:40:36;;;;;;;1.3;0.7;;;;;;;11.95;81.58398;942.4377;;;;
2020/10/10 12:43:01;;;;;;;1;0.7;;;;;;;12.11;80.75391;942.4484;;;;
2020/10/10 12:45:29;;;;;;;1.8;0.9;;;;;;;11.71;80.45996;942.3522;;;;
2020/10/10 12:47:55;;;;;;;1.5;1;;;;;;;11.7;81.67188;942.4023;;;;
2020/10/10 12:50:20;;;;;;;1.9;0.9;;;;;;;11.58;82.37109;942.3766;;;;
2020/10/10 12:52:45;;;;;;;2.3;1.1;;;;;;;11.72;82.60449;942.3755;;;;
2020/10/10 12:55:16;;;;;;;0.9;0.6;;;;;;;11.92;82.21875;942.3926;;;;
2020/10/10 12:57:42;;;;;;;2.4;0.8;;;;;;;11.93;81.42969;942.3761;;;;
2020/10/10 13:00:07;;;;;;;0.4;0.4;;;;;;;12.11;80.77637;942.351;;;;
2020/10/10 13:02:32;;;;;;;2;0.7;;;;;;;11.87;81.56738;942.3474;;;;
2020/10/10 13:04:57;;;;;;;1.6;0.7;;;;;;;11.96;81.87012;942.3635;;;;
2020/10/10 13:07:23;;;;;;;1.4;1;;;;;;;12.03;81.19629;942.3669;;;;
2020/10/10 13:09:48;;;;;;;0.7;0.6;;;;;;;12.01;81.00977;942.2889;;;;
2020/10/10 13:12:13;;;;;;;0.9;0.6;;;;;;;12.06;81.35059;942.2819;;;;
2020/10/10 13:14:38;;;;;;;1;0.7;;;;;;;12.08;81.2168;942.2724;;;;
2020/10/10 13:17:03;;;;;;;1.2;0.8;;;;;;;11.88;82.38184;942.1696;;;;
2020/10/10 13:19:29;;;;;;;0.7;0.7;;;;;;;12.11;81.41797;942.2679;;;;
2020/10/10 13:21:54;;;;;;;1.5;0.8;;;;;;;12.21;81.26465;942.2317;;;;
2020/10/10 13:24:20;;;;;;;0.5;0.4;;;;;;;12.37;80.65137;942.1573;;;;
2020/10/10 13:26:45;;;;;;;0.5;0.5;;;;;;;12.41;80.32617;942.12;;;;
2020/10/10 13:29:11;;;;;;;1.2;0.7;;;;;;;12.34;80.03906;942.1259;;;;
2020/10/10 13:31:37;;;;;;;0.5;0.4;;;;;;;12.38;79.49512;942.1102;;;;
2020/10/10 13:34:03;;;;;;;1.4;0.6;;;;;;;12.27;80.10547;942.1228;;;;
2020/10/10 13:36:28;;;;;;;0.5;0.4;;;;;;;12.18;79.9873;942.1337;;;;
2020/10/10 13:38:55;;;;;;;1.3;0.6;;;;;;;12.22;80.45313;942.0753;;;;
2020/10/10 13:41:21;;;;;;;0.7;0.5;;;;;;;12.14;79.38379;942.1397;;;;
2020/10/10 13:43:46;;;;;;;0.4;0.3;;;;;;;11.68;82.63086;942.1071;;;;
2020/10/10 13:46:12;;;;;;;0.7;0.5;;;;;;;11.85;80.8877;942.079;;;;
2020/10/10 13:48:37;;;;;;;1.1;0.6;;;;;;;11.74;82.36816;942.027;;;;
2020/10/10 13:51:05;;;;;;;0.6;0.5;;;;;;;11.89;82.24609;941.9981;;;;
2020/10/10 13:53:30;;;;;;;1.2;0.6;;;;;;;11.97;81.20801;941.9957;;;;
2020/10/10 13:55:55;;;;;;;0.6;0.6;;;;;;;11.96;81.72168;941.9342;;;;
2020/10/10 13:58:21;;;;;;;0.9;0.5;;;;;;;12.13;80.8252;941.9081;;;;
2020/10/10 14:00:54;;;;;;;0.5;0.4;;;;;;;12.2;80.6084;941.9039;;;;
2020/10/10 14:03:15;;;;;;;1.5;0.7;;;;;;;12.13;80.96191;941.9001;;;;
2020/10/10 14:05:39;;;;;;;1.8;1.3;;;;;;;11.78;81.81348;941.9357;;;;
2020/10/10 14:08:04;;;;;;;2.8;1.2;;;;;;;11.85;82.74316;941.9178;;;;
2020/10/10 14:10:30;;;;;;;1.9;1.3;;;;;;;11.73;81.97656;941.9615;;;;
2020/10/10 14:12:54;;;;;;;2;1.1;;;;;;;11.87;82.26563;942.0098;;;;
2020/10/10 14:15:27;;;;;;;2;1.1;;;;;;;12;82.2002;941.9434;;;;
2020/10/10 14:17:53;;;;;;;6.7;1.4;;;;;;;12.05;82.23145;941.8939;;;;
2020/10/10 14:20:17;;;;;;;3.8;1.1;;;;;;;12.07;82.41797;941.9213;;;;
2020/10/10 14:22:44;;;;;;;1.7;0.9;;;;;;;12.03;81.92969;941.9359;;;;
2020/10/10 14:25:09;;;;;;;0.8;0.8;;;;;;;12.04;81.85156;941.9623;;;;
2020/10/10 14:27:36;;;;;;;2.1;1.2;;;;;;;12.03;81.75781;941.9487;;;;
2020/10/10 14:30:01;;;;;;;1.7;1.1;;;;;;;11.98;81.30273;942.0109;;;;
2020/10/10 14:32:26;;;;;;;1.5;1.1;;;;;;;12.03;80.97949;941.9973;;;;
2020/10/10 14:34:51;;;;;;;1.5;1.2;;;;;;;11.95;82.25781;941.9731;;;;
2020/10/10 14:37:18;;;;;;;2.7;1.3;;;;;;;12.01;82.48828;941.947;;;;
2020/10/10 14:39:43;;;;;;;1.3;0.8;;;;;;;12.02;83.09473;941.9662;;;;
2020/10/10 14:42:08;;;;;;;0.7;0.7;;;;;;;12.06;82.88574;941.9817;;;;
2020/10/10 14:44:35;;;;;;;2;1.2;;;;;;;12.08;82.13379;941.9906;;;;
2020/10/10 14:47:00;;;;;;;1.5;0.8;;;;;;;12.08;81.9502;942.0417;;;;
2020/10/10 14:49:27;;;;;;;3.3;1;;;;;;;12.07;82.19824;941.9778;;;;
2020/10/10 14:51:52;;;;;;;2.2;1.3;;;;;;;12.05;81.95605;942.0327;;;;
2020/10/10 14:54:19;;;;;;;1.2;1;;;;;;;11.97;82.53711;942.0492;;;;
2020/10/10 14:56:44;;;;;;;1.1;1;;;;;;;11.95;82.88672;942.025;;;;
2020/10/10 14:59:09;;;;;;;2.2;1.1;;;;;;;11.71;83.64355;942.0171;;;;
2020/10/10 15:01:37;;;;;;;5.8;1.1;;;;;;;11.78;83.54297;942.0086;;;;
2020/10/10 15:04:02;;;;;;;2.1;1.4;;;;;;;11.73;83.93457;942.0859;;;;
2020/10/10 15:06:34;;;;;;;1.8;1;;;;;;;11.66;83.51953;942.1314;;;;
2020/10/10 15:09:01;;;;;;;2;1.1;;;;;;;11.74;82.83691;942.1508;;;;
2020/10/10 15:11:27;;;;;;;1.7;1.1;;;;;;;11.62;82.95215;942.1096;;;;
2020/10/10 15:13:55;;;;;;;1.8;1.3;;;;;;;11.54;83.48633;942.0731;;;;
2020/10/10 15:16:20;;;;;;;4.1;1.6;;;;;;;11.42;84.28516;942.157;;;;
2020/10/10 15:18:55;;;;;;;3.4;1.7;;;;;;;11.59;84.53613;942.1383;;;;
2020/10/10 15:21:25;;;;;;;3.5;1.8;;;;;;;11.5;85.31934;942.134;;;;
2020/10/10 15:24:00;;;;;;;2.1;1.4;;;;;;;11.53;84.93555;942.1304;;;;
2020/10/10 15:26:26;;;;;;;4.9;3.7;;;;;;;11.39;83.92383;942.1372;;;;
2020/10/10 15:28:51;;;;;;;5.1;3.3;;;;;;;11.44;83.87695;942.119;;;;